Time;durP1;ratioP1;P1;durP2;ratioP2;P2;SDS_P1;SDS_P2;PMS_P1;PMS_P2;Temp;Humidity;BMP_temperature;BMP_pressure;BME280_temperature;BME280_humidity;BME280_pressure;Samples;Min_cycle;Max_cycle;Signal;HPM_P1;HPM_P2
2023/04/07 00:04:43;;;;;;;10.55;8.10;;;;;;;;;;12816058;23;20021;-84
2023/04/07 00:09:44;;;;;;;10.32;7.43;;;;;;;;;;12813677;23;20028;-82
2023/04/07 00:14:45;;;;;;;10.85;8.30;;;;;;;;;;12820723;23;20076;-84
2023/04/07 00:19:45;;;;;;;13.85;9.25;;;;;;;;;;12797845;23;20011;-84
2023/04/07 00:24:46;;;;;;;13.13;9.52;;;;;;;;;;12825028;23;20028;-79
2023/04/07 00:29:46;;;;;;;15.93;9.35;;;;;;;;;;12826466;23;20005;-81
2023/04/07 00:34:47;;;;;;;15.88;10.02;;;;;;;;;;12836227;23;20009;-80
2023/04/07 00:39:50;;;;;;;14.38;9.30;;;;;;;;;;12795936;23;20141;-78
2023/04/07 00:44:52;;;;;;;14.35;9.73;;;;;;;;;;12784265;23;20013;-79
2023/04/07 00:49:52;;;;;;;14.35;9.82;;;;;;;;;;12782600;23;20485;-80
2023/04/07 00:54:56;;;;;;;14.70;9.80;;;;;;;;;;12779827;23;20017;-81
2023/04/07 00:59:57;;;;;;;14.88;10.15;;;;;;;;;;12790722;23;20284;-81
2023/04/07 01:05:14;;;;;;;12.85;9.38;;;;;;;;;;12819001;23;20100;-80
2023/04/07 01:10:19;;;;;;;17.35;10.90;;;;;;;;;;12824763;23;20013;-82
2023/04/07 01:15:29;;;;;;;12.27;9.05;;;;;;;;;;12839642;23;20017;-81
2023/04/07 01:20:31;;;;;;;15.25;10.77;;;;;;;;;;12835411;23;20018;-81
2023/04/07 01:26:06;;;;;;;13.52;9.73;;;;;;;;;;12799629;23;20126;-79
2023/04/07 01:31:09;;;;;;;16.35;9.98;;;;;;;;;;12839125;23;19997;-78
2023/04/07 01:36:13;;;;;;;11.95;9.32;;;;;;;;;;12841897;23;20013;-79
2023/04/07 01:41:20;;;;;;;13.57;9.60;;;;;;;;;;12833378;23;20327;-84
2023/04/07 01:46:21;;;;;;;16.58;10.30;;;;;;;;;;12790766;23;20112;-83
2023/04/07 01:51:22;;;;;;;16.23;9.70;;;;;;;;;;12791003;23;20502;-80
2023/04/07 01:56:23;;;;;;;14.27;9.63;;;;;;;;;;12813032;23;20020;-83
2023/04/07 02:01:28;;;;;;;13.35;8.82;;;;;;;;;;12784816;23;20021;-80
2023/04/07 02:06:32;;;;;;;12.55;8.88;;;;;;;;;;12802648;23;20088;-83
2023/04/07 02:11:34;;;;;;;11.32;8.88;;;;;;;;;;12778349;23;20454;-80
2023/04/07 02:16:38;;;;;;;16.13;9.93;;;;;;;;;;12754849;23;20023;-80
2023/04/07 02:21:39;;;;;;;13.95;9.15;;;;;;;;;;12779883;23;20446;-77
2023/04/07 02:26:41;;;;;;;14.38;9.90;;;;;;;;;;12793206;23;20013;-80
2023/04/07 02:31:41;;;;;;;15.65;9.80;;;;;;;;;;12781095;23;20017;-79
2023/04/07 02:36:42;;;;;;;16.93;9.47;;;;;;;;;;12781485;23;20106;-80
2023/04/07 02:41:42;;;;;;;13.80;9.45;;;;;;;;;;12778636;23;20283;-79
2023/04/07 02:46:43;;;;;;;13.85;8.73;;;;;;;;;;12759215;23;20023;-81
2023/04/07 02:51:45;;;;;;;14.88;8.82;;;;;;;;;;12779685;23;20747;-79
2023/04/07 02:56:48;;;;;;;13.82;9.27;;;;;;;;;;12754416;23;20464;-81
2023/04/07 03:01:49;;;;;;;12.70;10.05;;;;;;;;;;12779048;23;20032;-80
2023/04/07 03:06:51;;;;;;;14.95;8.77;;;;;;;;;;12780639;23;20025;-80
2023/04/07 03:11:57;;;;;;;11.80;8.70;;;;;;;;;;12782446;23;20128;-80
2023/04/07 03:16:59;;;;;;;14.90;9.90;;;;;;;;;;12778729;23;20013;-78
2023/04/07 03:22:00;;;;;;;14.65;9.40;;;;;;;;;;12792874;23;20119;-80
2023/04/07 03:27:08;;;;;;;12.75;9.20;;;;;;;;;;12787209;23;20012;-81
2023/04/07 03:32:17;;;;;;;12.60;9.02;;;;;;;;;;12795398;23;20033;-80
2023/04/07 03:37:18;;;;;;;12.80;9.00;;;;;;;;;;12809959;23;20017;-76
2023/04/07 03:42:20;;;;;;;12.98;9.38;;;;;;;;;;12841937;23;19997;-76
2023/04/07 03:47:23;;;;;;;12.80;9.32;;;;;;;;;;12819857;23;20019;-77
2023/04/07 03:52:30;;;;;;;15.38;10.45;;;;;;;;;;12827804;23;20052;-79
2023/04/07 03:57:39;;;;;;;14.60;10.75;;;;;;;;;;12778268;23;20051;-78
2023/04/07 04:02:40;;;;;;;13.90;9.30;;;;;;;;;;12781187;23;20080;-77
2023/04/07 04:07:42;;;;;;;13.65;9.10;;;;;;;;;;12783226;23;20669;-79
2023/04/07 04:12:44;;;;;;;17.08;10.15;;;;;;;;;;12787607;23;20028;-77
2023/04/07 04:17:47;;;;;;;12.52;9.13;;;;;;;;;;12782849;23;20445;-76
2023/04/07 04:22:48;;;;;;;13.43;9.25;;;;;;;;;;12780128;23;20505;-78
2023/04/07 04:27:50;;;;;;;11.23;8.73;;;;;;;;;;12778370;23;20013;-79
2023/04/07 04:32:58;;;;;;;13.13;9.00;;;;;;;;;;12754685;23;20402;-78
2023/04/07 04:38:19;;;;;;;14.25;8.30;;;;;;;;;;12778189;23;20012;-77
2023/04/07 04:43:28;;;;;;;11.93;9.02;;;;;;;;;;12779955;23;20012;-77
2023/04/07 04:48:31;;;;;;;10.70;8.68;;;;;;;;;;12754421;23;20064;-77
2023/04/07 04:53:32;;;;;;;11.30;8.25;;;;;;;;;;12756845;23;20024;-77
2023/04/07 04:58:35;;;;;;;13.25;9.02;;;;;;;;;;12793157;23;20005;-78
2023/04/07 05:03:36;;;;;;;11.40;9.15;;;;;;;;;;12800458;23;20057;-76
2023/04/07 05:08:43;;;;;;;11.88;8.82;;;;;;;;;;12791519;23;20095;-82
2023/04/07 05:13:44;;;;;;;11.27;8.35;;;;;;;;;;12755361;23;20613;-80
2023/04/07 05:18:45;;;;;;;12.95;8.82;;;;;;;;;;12783686;23;20040;-80
2023/04/07 05:23:48;;;;;;;13.02;8.57;;;;;;;;;;12781175;23;20013;-80
2023/04/07 05:28:50;;;;;;;12.73;9.03;;;;;;;;;;12755018;23;20490;-81
2023/04/07 05:33:54;;;;;;;13.52;9.30;;;;;;;;;;12786075;23;20403;-80
2023/04/07 05:38:59;;;;;;;11.23;8.45;;;;;;;;;;12778675;23;20104;-78
2023/04/07 05:44:00;;;;;;;13.50;8.65;;;;;;;;;;12779048;23;20876;-82
2023/04/07 05:49:02;;;;;;;12.52;8.55;;;;;;;;;;12797467;23;20037;-78
2023/04/07 05:54:06;;;;;;;11.98;8.13;;;;;;;;;;12819918;23;20020;-79
2023/04/07 05:59:06;;;;;;;12.13;8.63;;;;;;;;;;12826068;23;20005;-80
2023/04/07 06:04:07;;;;;;;9.55;7.82;;;;;;;;;;12796980;23;20021;-78
2023/04/07 06:09:07;;;;;;;12.02;8.30;;;;;;;;;;12788371;23;20009;-78
2023/04/07 06:14:08;;;;;;;10.48;7.85;;;;;;;;;;12782033;23;20036;-78
2023/04/07 06:19:08;;;;;;;12.63;9.38;;;;;;;;;;12781634;23;20044;-79
2023/04/07 06:24:09;;;;;;;12.30;8.98;;;;;;;;;;12788143;23;20044;-80
2023/04/07 06:29:12;;;;;;;13.55;9.50;;;;;;;;;;12783061;23;20009;-81
2023/04/07 06:34:13;;;;;;;12.48;9.07;;;;;;;;;;12784433;23;20021;-77
2023/04/07 06:39:15;;;;;;;15.95;10.18;;;;;;;;;;12779872;23;20051;-79
2023/04/07 06:44:17;;;;;;;13.77;10.48;;;;;;;;;;12781844;23;20020;-79
2023/04/07 06:49:20;;;;;;;11.60;9.45;;;;;;;;;;12781292;23;20005;-79
2023/04/07 06:54:20;;;;;;;;;;;;;;;;;;12780299;23;20021;-80
2023/04/07 06:59:21;;;;;;;13.35;10.30;;;;;;;;;;12790215;23;19927;-80
2023/04/07 07:04:22;;;;;;;13.93;9.48;;;;;;;;;;12804012;23;20028;-78
2023/04/07 07:09:26;;;;;;;14.60;10.88;;;;;;;;;;12784379;23;20017;-80
2023/04/07 07:14:31;;;;;;;15.32;9.85;;;;;;;;;;12794491;23;20048;-84
2023/04/07 07:19:32;;;;;;;14.45;10.32;;;;;;;;;;12812720;23;20013;-79
2023/04/07 07:24:33;;;;;;;13.02;10.43;;;;;;;;;;12761728;23;20017;-79
2023/04/07 07:29:33;;;;;;;15.10;10.65;;;;;;;;;;12788275;23;20017;-79
2023/04/07 07:34:33;;;;;;;14.27;10.35;;;;;;;;;;12796738;23;20033;-78
2023/04/07 07:39:35;;;;;;;12.88;10.20;;;;;;;;;;12804680;23;20009;-80
2023/04/07 07:44:35;;;;;;;13.65;10.60;;;;;;;;;;12818864;23;20017;-80
2023/04/07 07:49:36;;;;;;;13.37;10.30;;;;;;;;;;12814697;23;20020;-80
2023/04/07 07:54:37;;;;;;;16.33;10.43;;;;;;;;;;12804376;23;20240;-80
2023/04/07 07:59:39;;;;;;;14.70;10.53;;;;;;;;;;12825335;23;20016;-81
2023/04/07 08:04:40;;;;;;;13.85;10.07;;;;;;;;;;12813709;23;20368;-82
2023/04/07 08:09:40;;;;;;;12.50;9.05;;;;;;;;;;12823279;23;19997;-79
2023/04/07 08:14:41;;;;;;;12.70;9.53;;;;;;;;;;12841737;23;20013;-79
2023/04/07 08:19:41;;;;;;;12.87;9.53;;;;;;;;;;12835187;23;20012;-78
2023/04/07 08:24:41;;;;;;;13.90;9.68;;;;;;;;;;12798096;23;20787;-79
2023/04/07 08:29:42;;;;;;;14.13;10.37;;;;;;;;;;12826112;23;20009;-81
2023/04/07 08:34:42;;;;;;;13.33;9.50;;;;;;;;;;12838065;23;20275;-79
2023/04/07 08:39:42;;;;;;;11.83;9.27;;;;;;;;;;12805738;23;20025;-78
2023/04/07 08:44:43;;;;;;;12.95;10.23;;;;;;;;;;12793234;23;20249;-82
2023/04/07 08:49:47;;;;;;;13.15;9.50;;;;;;;;;;12801946;23;20103;-79
2023/04/07 08:54:48;;;;;;;13.48;9.73;;;;;;;;;;12808980;23;20019;-82
2023/04/07 08:59:50;;;;;;;12.20;9.18;;;;;;;;;;12802238;23;20413;-82
2023/04/07 09:04:50;;;;;;;13.93;10.77;;;;;;;;;;12774452;23;20347;-81
2023/04/07 09:09:51;;;;;;;14.70;10.38;;;;;;;;;;12792457;23;20013;-79
2023/04/07 09:14:51;;;;;;;12.57;9.30;;;;;;;;;;12815828;23;20009;-83
2023/04/07 09:19:54;;;;;;;13.30;9.75;;;;;;;;;;12833591;23;20059;-82
2023/04/07 09:30:21;;;;;;;12.88;9.13;;;;;;;;;;12792639;22;20037;-87
2023/04/07 09:35:23;;;;;;;;;;;;;;;;;;12830070;23;20001;-86
2023/04/07 09:45:48;;;;;;;13.93;9.80;;;;;;;;;;12703150;22;20009;-85
2023/04/07 09:56:23;;;;;;;13.68;9.23;;;;;;;;;;12703380;22;20017;-87
2023/04/07 10:01:24;;;;;;;12.45;9.10;;;;;;;;;;12827802;23;20009;-84
2023/04/07 10:06:26;;;;;;;13.20;9.35;;;;;;;;;;12837849;23;20025;-82
2023/04/07 10:11:28;;;;;;;12.88;8.95;;;;;;;;;;12802341;23;20025;-84
2023/04/07 10:16:29;;;;;;;12.63;9.15;;;;;;;;;;12832206;23;20069;-83
2023/04/07 10:21:31;;;;;;;15.85;9.80;;;;;;;;;;12831347;23;20077;-83
2023/04/07 10:31:56;;;;;;;13.50;9.50;;;;;;;;;;12666919;22;20037;-86
2023/04/07 10:37:08;;;;;;;14.23;9.27;;;;;;;;;;12803077;23;20017;-73
2023/04/07 10:42:27;;;;;;;15.00;9.60;;;;;;;;;;12813605;22;20020;-72
2023/04/07 10:47:28;;;;;;;12.73;9.57;;;;;;;;;;12816474;22;20026;-74
2023/04/07 10:52:28;;;;;;;14.23;9.38;;;;;;;;;;12840660;23;20111;-74
2023/04/07 10:57:29;;;;;;;14.15;9.75;;;;;;;;;;12814357;23;20040;-75
2023/04/07 11:02:31;;;;;;;13.82;10.48;;;;;;;;;;12876620;23;19993;-85
2023/04/07 11:07:43;;;;;;;12.50;9.80;;;;;;;;;;12825606;23;20493;-74
2023/04/07 11:12:43;;;;;;;16.65;11.10;;;;;;;;;;12778986;23;20017;-77
2023/04/07 11:17:44;;;;;;;12.93;9.63;;;;;;;;;;12816992;23;20100;-84
2023/04/07 11:22:58;;;;;;;12.60;8.98;;;;;;;;;;12802306;23;20009;-85
2023/04/07 11:28:00;;;;;;;14.85;10.73;;;;;;;;;;12806548;23;20013;-84
2023/04/07 11:33:01;;;;;;;12.07;9.55;;;;;;;;;;12804925;23;20027;-84
2023/04/07 11:38:02;;;;;;;13.15;9.98;;;;;;;;;;12824749;23;20013;-83
2023/04/07 11:43:16;;;;;;;13.38;10.27;;;;;;;;;;12826857;23;20588;-84
2023/04/07 11:48:26;;;;;;;12.18;10.05;;;;;;;;;;12816471;23;20007;-82
2023/04/07 11:53:28;;;;;;;12.75;10.50;;;;;;;;;;12843545;23;20009;-84
2023/04/07 11:58:29;;;;;;;13.52;11.20;;;;;;;;;;12817591;23;20009;-84
2023/04/07 12:03:29;;;;;;;12.90;10.45;;;;;;;;;;12781744;23;20017;-85
2023/04/07 12:08:38;;;;;;;12.77;10.15;;;;;;;;;;12808235;23;20023;-85
2023/04/07 12:13:38;;;;;;;12.60;10.10;;;;;;;;;;12820367;23;20396;-85
2023/04/07 12:18:40;;;;;;;14.10;10.90;;;;;;;;;;12806708;23;20395;-87
2023/04/07 12:23:41;;;;;;;13.75;11.15;;;;;;;;;;12804594;23;20012;-84
2023/04/07 12:28:42;;;;;;;12.02;10.13;;;;;;;;;;12806515;23;20027;-84
2023/04/07 12:33:42;;;;;;;15.98;10.82;;;;;;;;;;12803102;23;20457;-85
2023/04/07 12:38:43;;;;;;;13.93;10.70;;;;;;;;;;12803705;23;20295;-84
2023/04/07 12:43:43;;;;;;;13.18;10.77;;;;;;;;;;12807711;23;20017;-85
2023/04/07 12:48:44;;;;;;;14.70;10.87;;;;;;;;;;12838993;23;20077;-84
2023/04/07 12:53:46;;;;;;;12.32;10.13;;;;;;;;;;12839776;23;20596;-84
2023/04/07 12:58:46;;;;;;;11.85;10.07;;;;;;;;;;12825934;23;20017;-84
2023/04/07 13:03:47;;;;;;;13.07;10.95;;;;;;;;;;12813078;23;20009;-84
2023/04/07 13:08:47;;;;;;;13.23;11.83;;;;;;;;;;12828613;23;20115;-82
2023/04/07 13:13:48;;;;;;;13.68;12.27;;;;;;;;;;12835659;23;20399;-83
2023/04/07 13:18:48;;;;;;;14.73;12.20;;;;;;;;;;12812845;23;20005;-85
2023/04/07 13:23:50;;;;;;;11.38;9.88;;;;;;;;;;12810940;23;20016;-85
2023/04/07 13:28:50;;;;;;;12.43;11.13;;;;;;;;;;12819711;23;20056;-84
2023/04/07 13:33:51;;;;;;;13.03;11.60;;;;;;;;;;12807863;23;20611;-84
2023/04/07 13:38:53;;;;;;;13.43;11.80;;;;;;;;;;12801358;23;20043;-84
2023/04/07 13:43:53;;;;;;;14.30;12.18;;;;;;;;;;12797849;23;20380;-85
2023/04/07 13:49:01;;;;;;;12.48;11.15;;;;;;;;;;12796699;23;20304;-84
2023/04/07 13:54:05;;;;;;;14.43;12.27;;;;;;;;;;12792606;23;20454;-84
2023/04/07 13:59:12;;;;;;;14.60;12.13;;;;;;;;;;12804953;23;20068;-80
2023/04/07 14:04:13;;;;;;;12.48;11.07;;;;;;;;;;12811611;23;20071;-81
2023/04/07 14:09:15;;;;;;;14.68;11.82;;;;;;;;;;12810384;23;20388;-82
2023/04/07 14:14:15;;;;;;;12.88;10.35;;;;;;;;;;12792450;23;20063;-88
2023/04/07 14:19:16;;;;;;;14.07;11.88;;;;;;;;;;12803446;23;20017;-85
2023/04/07 14:24:22;;;;;;;13.48;10.68;;;;;;;;;;12801853;23;20017;-82
2023/04/07 14:29:23;;;;;;;11.65;9.38;;;;;;;;;;12817348;23;20013;-88
2023/04/07 14:34:24;;;;;;;13.18;11.00;;;;;;;;;;12822953;23;20025;-86
2023/04/07 14:39:24;;;;;;;11.93;10.25;;;;;;;;;;12815411;23;20043;-81
2023/04/07 14:44:25;;;;;;;11.80;9.75;;;;;;;;;;12811484;23;20009;-83
2023/04/07 14:49:27;;;;;;;11.13;9.00;;;;;;;;;;12801862;23;20021;-83
2023/04/07 14:54:28;;;;;;;13.90;9.65;;;;;;;;;;12831325;23;20300;-82
2023/04/07 14:59:28;;;;;;;12.07;8.88;;;;;;;;;;12840763;23;19993;-86
2023/04/07 15:04:29;;;;;;;9.93;8.43;;;;;;;;;;12827071;23;20048;-81
2023/04/07 15:09:30;;;;;;;11.75;9.15;;;;;;;;;;12825324;23;20240;-83
2023/04/07 15:14:30;;;;;;;11.90;9.13;;;;;;;;;;12796572;23;20087;-81
2023/04/07 15:19:31;;;;;;;11.52;9.00;;;;;;;;;;12815631;23;20029;-81
2023/04/07 15:24:33;;;;;;;10.95;8.30;;;;;;;;;;12791346;23;20005;-82
2023/04/07 15:29:36;;;;;;;9.93;8.60;;;;;;;;;;12790579;23;20012;-83
2023/04/07 15:34:36;;;;;;;11.93;8.70;;;;;;;;;;12819517;23;20072;-83
2023/04/07 15:39:39;;;;;;;10.37;8.10;;;;;;;;;;12803729;22;20016;-84
2023/04/07 15:50:08;;;;;;;10.52;8.57;;;;;;;;;;12845146;23;20005;-83
2023/04/07 15:55:12;;;;;;;12.35;8.48;;;;;;;;;;12795789;22;20026;-86
2023/04/07 16:00:13;;;;;;;10.85;8.32;;;;;;;;;;12822259;23;20016;-83
2023/04/07 16:05:15;;;;;;;10.35;8.00;;;;;;;;;;12794125;23;20021;-82
2023/04/07 16:10:19;;;;;;;10.23;7.93;;;;;;;;;;12790950;23;20021;-83
2023/04/07 16:15:20;;;;;;;7.57;6.55;;;;;;;;;;12785626;23;20092;-82
2023/04/07 16:20:21;;;;;;;10.60;7.57;;;;;;;;;;12784175;23;20354;-82
2023/04/07 16:25:23;;;;;;;8.48;7.05;;;;;;;;;;12782999;23;20256;-82
2023/04/07 16:30:25;;;;;;;10.25;8.05;;;;;;;;;;12783039;23;20403;-81
2023/04/07 16:35:28;;;;;;;9.32;6.70;;;;;;;;;;12781990;23;20028;-81
2023/04/07 16:40:28;;;;;;;9.75;7.53;;;;;;;;;;12787900;23;20095;-81
2023/04/07 16:45:28;;;;;;;11.65;8.43;;;;;;;;;;12794896;23;20466;-80
2023/04/07 16:50:29;;;;;;;11.88;9.18;;;;;;;;;;12807419;23;20114;-81
2023/04/07 16:55:30;;;;;;;13.25;9.10;;;;;;;;;;12781381;23;20881;-82
2023/04/07 17:00:30;;;;;;;10.73;8.40;;;;;;;;;;12789557;23;20028;-82
2023/04/07 17:05:30;;;;;;;11.10;8.30;;;;;;;;;;12783847;23;20604;-79
2023/04/07 17:10:31;;;;;;;15.63;10.60;;;;;;;;;;12790044;23;20270;-82
2023/04/07 17:15:34;;;;;;;12.60;9.37;;;;;;;;;;12782156;23;20257;-81
2023/04/07 17:20:41;;;;;;;13.27;9.85;;;;;;;;;;12791327;23;20244;-82
2023/04/07 17:25:41;;;;;;;10.85;8.32;;;;;;;;;;12788827;23;20043;-82
2023/04/07 17:30:43;;;;;;;11.30;8.37;;;;;;;;;;12757052;23;20021;-83
2023/04/07 17:35:46;;;;;;;11.05;8.55;;;;;;;;;;12787882;23;20017;-83
2023/04/07 17:40:47;;;;;;;12.77;9.93;;;;;;;;;;12791302;23;20326;-81
2023/04/07 17:45:47;;;;;;;15.77;11.80;;;;;;;;;;12790164;23;20019;-78
2023/04/07 17:50:48;;;;;;;14.07;10.83;;;;;;;;;;12795647;23;20264;-82
2023/04/07 17:55:50;;;;;;;15.23;10.70;;;;;;;;;;12803957;23;20120;-80
2023/04/07 18:00:51;;;;;;;14.13;9.87;;;;;;;;;;12806987;23;20020;-83
2023/04/07 18:05:53;;;;;;;16.25;11.38;;;;;;;;;;12822848;23;20140;-81
2023/04/07 18:10:55;;;;;;;14.70;11.35;;;;;;;;;;12844364;23;20194;-82
2023/04/07 18:15:56;;;;;;;15.52;11.52;;;;;;;;;;12840519;23;20016;-81
2023/04/07 18:20:58;;;;;;;16.25;11.30;;;;;;;;;;12808901;23;20017;-82
2023/04/07 18:26:01;;;;;;;12.90;9.93;;;;;;;;;;12793261;23;20013;-80
2023/04/07 18:31:05;;;;;;;17.42;9.73;;;;;;;;;;12771972;23;20268;-81
2023/04/07 18:36:06;;;;;;;13.00;9.65;;;;;;;;;;12786253;23;20021;-82
2023/04/07 18:41:06;;;;;;;17.38;10.18;;;;;;;;;;12784423;23;20782;-80
2023/04/07 18:46:07;;;;;;;16.10;12.07;;;;;;;;;;12782133;23;20048;-79
2023/04/07 18:51:07;;;;;;;15.30;11.20;;;;;;;;;;12781369;23;20124;-82
2023/04/07 18:56:09;;;;;;;15.57;10.98;;;;;;;;;;12806100;22;20260;-79
2023/04/07 19:01:10;;;;;;;14.32;10.23;;;;;;;;;;12788488;23;20426;-81
2023/04/07 19:06:13;;;;;;;13.05;9.75;;;;;;;;;;12769182;23;20013;-80
2023/04/07 19:11:13;;;;;;;14.93;9.70;;;;;;;;;;12813917;23;20033;-80
2023/04/07 19:16:14;;;;;;;14.80;10.02;;;;;;;;;;12819863;23;19997;-83
2023/04/07 19:21:15;;;;;;;15.02;10.38;;;;;;;;;;12814731;23;20525;-82
2023/04/07 19:26:16;;;;;;;13.63;9.77;;;;;;;;;;12818836;23;20065;-83
2023/04/07 19:31:25;;;;;;;14.18;10.93;;;;;;;;;;12818986;23;20771;-81
2023/04/07 19:36:27;;;;;;;14.88;10.82;;;;;;;;;;12796663;23;20307;-82
2023/04/07 19:41:30;;;;;;;14.20;10.67;;;;;;;;;;12787432;23;20140;-84
2023/04/07 19:46:32;;;;;;;18.80;10.35;;;;;;;;;;12789830;23;20287;-80
2023/04/07 19:51:34;;;;;;;12.52;9.18;;;;;;;;;;12782162;23;20509;-79
2023/04/07 19:56:34;;;;;;;13.02;9.35;;;;;;;;;;12754594;23;20082;-78
2023/04/07 20:01:34;;;;;;;10.75;8.73;;;;;;;;;;12783886;23;20024;-80
2023/04/07 20:06:38;;;;;;;15.30;9.47;;;;;;;;;;12795772;23;20490;-78
2023/04/07 20:11:39;;;;;;;12.55;9.35;;;;;;;;;;12789972;23;20386;-80
2023/04/07 20:16:39;;;;;;;12.87;8.90;;;;;;;;;;12789302;23;20821;-81
2023/04/07 20:21:40;;;;;;;13.40;10.05;;;;;;;;;;12792906;23;21084;-81
2023/04/07 20:26:41;;;;;;;15.82;10.95;;;;;;;;;;12799550;23;20020;-85
2023/04/07 20:31:44;;;;;;;13.18;10.32;;;;;;;;;;12804883;23;20017;-82
2023/04/07 20:36:47;;;;;;;16.67;11.60;;;;;;;;;;12820049;23;20048;-86
2023/04/07 20:41:51;;;;;;;17.52;11.07;;;;;;;;;;12844952;23;20020;-85
2023/04/07 20:46:51;;;;;;;14.52;10.90;;;;;;;;;;12845939;23;20009;-83
2023/04/07 20:51:52;;;;;;;16.92;11.70;;;;;;;;;;12773607;23;20049;-81
2023/04/07 20:56:53;;;;;;;16.73;11.15;;;;;;;;;;12768549;23;20025;-81
2023/04/07 21:01:54;;;;;;;15.85;10.07;;;;;;;;;;12793289;23;20391;-81
2023/04/07 21:07:04;;;;;;;12.40;9.18;;;;;;;;;;12807251;23;20040;-81
2023/04/07 21:12:05;;;;;;;14.35;10.02;;;;;;;;;;12801336;23;20032;-80
2023/04/07 21:17:07;;;;;;;12.93;9.30;;;;;;;;;;12837285;23;19993;-82
2023/04/07 21:22:11;;;;;;;11.73;8.93;;;;;;;;;;12823017;23;20051;-81
2023/04/07 21:27:13;;;;;;;11.93;8.70;;;;;;;;;;12853002;23;20045;-84
2023/04/07 21:32:14;;;;;;;11.70;8.95;;;;;;;;;;12847883;23;20060;-82
2023/04/07 21:37:16;;;;;;;10.63;8.23;;;;;;;;;;12831320;23;19997;-85
2023/04/07 21:42:16;;;;;;;12.32;8.50;;;;;;;;;;12824573;23;20071;-80
2023/04/07 21:47:18;;;;;;;10.85;8.98;;;;;;;;;;12828930;23;20013;-85
2023/04/07 21:52:20;;;;;;;13.35;9.48;;;;;;;;;;12829023;23;20017;-85
2023/04/07 21:57:20;;;;;;;13.48;9.73;;;;;;;;;;12828362;23;20016;-88
2023/04/07 22:02:21;;;;;;;13.30;10.20;;;;;;;;;;12833880;23;20085;-86
2023/04/07 22:07:21;;;;;;;15.23;10.38;;;;;;;;;;12825250;22;20271;-83
2023/04/07 22:12:21;;;;;;;13.25;10.15;;;;;;;;;;12833394;23;20013;-83
2023/04/07 22:17:23;;;;;;;13.52;9.85;;;;;;;;;;12814428;23;20016;-83
2023/04/07 22:22:30;;;;;;;12.70;9.57;;;;;;;;;;12784164;23;20108;-82
2023/04/07 22:27:31;;;;;;;15.45;10.65;;;;;;;;;;12782441;23;20016;-80
2023/04/07 22:32:33;;;;;;;12.88;9.98;;;;;;;;;;12782714;23;20029;-81
2023/04/07 22:37:35;;;;;;;13.48;9.35;;;;;;;;;;12786568;23;20443;-80
2023/04/07 22:42:36;;;;;;;14.10;10.23;;;;;;;;;;12839395;23;19997;-83
2023/04/07 22:47:39;;;;;;;12.75;9.15;;;;;;;;;;12846592;23;20064;-80
2023/04/07 22:52:40;;;;;;;14.13;10.70;;;;;;;;;;12845046;23;20019;-83
2023/04/07 22:57:41;;;;;;;15.05;10.80;;;;;;;;;;12835621;23;20012;-86
2023/04/07 23:02:42;;;;;;;14.07;10.80;;;;;;;;;;12877950;23;20044;-87
2023/04/07 23:07:43;;;;;;;13.38;10.52;;;;;;;;;;12867072;22;20000;-88
2023/04/07 23:12:45;;;;;;;11.18;9.73;;;;;;;;;;12912458;22;20012;-90
2023/04/07 23:17:47;;;;;;;12.40;10.05;;;;;;;;;;12914261;22;20008;-85
2023/04/07 23:22:52;;;;;;;12.43;9.95;;;;;;;;;;12847416;22;20013;-87
2023/04/07 23:27:54;;;;;;;13.88;9.52;;;;;;;;;;12843611;23;20056;-86
2023/04/07 23:33:03;;;;;;;15.45;10.30;;;;;;;;;;12814112;23;20013;-82
2023/04/07 23:38:04;;;;;;;13.30;9.88;;;;;;;;;;12807109;23;20393;-85
2023/04/07 23:43:10;;;;;;;14.07;9.70;;;;;;;;;;12767751;23;20020;-82
2023/04/07 23:48:13;;;;;;;15.48;10.30;;;;;;;;;;12787245;23;20025;-82
2023/04/07 23:53:15;;;;;;;11.67;10.03;;;;;;;;;;12765518;23;20052;-83
2023/04/07 23:58:16;;;;;;;14.20;10.32;;;;;;;;;;12820309;23;20004;-90
